Time;durP1;ratioP1;P1;durP2;ratioP2;P2;SDS_P1;SDS_P2;PMS_P1;PMS_P2;Temp;Humidity;BMP_temperature;BMP_pressure;BME280_temperature;BME280_humidity;BME280_pressure;Samples;Min_cycle;Max_cycle;Signal;HPM_P1;HPM_P2
2024/02/22 00:01:22;;;;;;;2.90;2.42;;;12.00;99.90;;;;;;5056948;28;20456;-80
2024/02/22 00:03:48;;;;;;;2.97;2.50;;;12.00;99.90;;;;;;5054956;28;20386;-79
2024/02/22 00:06:14;;;;;;;3.97;2.40;;;12.00;99.90;;;;;;5056640;28;20389;-79
2024/02/22 00:08:41;;;;;;;3.00;2.40;;;12.10;99.90;;;;;;5075408;28;20388;-79
2024/02/22 00:11:07;;;;;;;3.25;2.60;;;12.00;99.90;;;;;;5075734;28;20387;-79
2024/02/22 00:13:33;;;;;;;3.08;2.58;;;11.90;99.90;;;;;;5076875;28;20391;-79
2024/02/22 00:16:03;;;;;;;3.08;2.60;;;11.90;99.90;;;;;;5076594;28;20390;-80
2024/02/22 00:18:29;;;;;;;3.10;2.60;;;12.20;99.90;;;;;;5059490;28;20794;-79
2024/02/22 00:20:54;;;;;;;3.28;2.97;;;11.70;99.90;;;;;;5056571;28;20385;-79
2024/02/22 00:23:20;;;;;;;3.20;2.80;;;11.70;99.90;;;;;;5056868;28;20386;-79
2024/02/22 00:25:46;;;;;;;3.00;2.60;;;11.80;99.90;;;;;;5056605;28;20384;-79
2024/02/22 00:28:11;;;;;;;3.38;2.67;;;11.50;99.90;;;;;;5056836;28;20389;-79
2024/02/22 00:30:37;;;;;;;4.57;2.90;;;11.70;99.90;;;;;;5076128;22;20843;-81
2024/02/22 00:33:02;;;;;;;4.10;2.77;;;11.60;99.90;;;;;;5059302;28;20443;-81
2024/02/22 00:35:28;;;;;;;3.23;2.90;;;11.50;99.90;;;;;;5042917;28;20483;-80
2024/02/22 00:37:54;;;;;;;2.75;2.45;;;11.70;99.90;;;;;;5057936;28;20463;-81
2024/02/22 00:40:19;;;;;;;4.75;2.50;;;11.60;99.90;;;;;;5062532;28;20473;-80
2024/02/22 00:42:45;;;;;;;2.97;2.67;;;11.50;99.90;;;;;;5062103;28;20385;-80
2024/02/22 00:45:11;;;;;;;3.17;2.40;;;13.10;99.90;;;;;;5035775;28;20452;-80
2024/02/22 00:47:37;;;;;;;3.40;2.42;;;11.70;99.90;;;;;;5043576;28;20405;-80
2024/02/22 00:50:03;;;;;;;4.20;2.97;;;11.50;99.90;;;;;;5076893;28;20410;-80
2024/02/22 00:52:29;;;;;;;2.95;2.30;;;11.50;99.90;;;;;;5082903;28;20802;-80
2024/02/22 00:54:55;;;;;;;3.23;2.50;;;11.60;99.90;;;;;;5065069;28;20401;-81
2024/02/22 00:57:20;;;;;;;3.80;2.70;;;11.60;99.90;;;;;;5048049;28;20753;-81
2024/02/22 00:59:46;;;;;;;2.40;2.20;;;11.50;99.90;;;;;;5063430;28;20443;-80
2024/02/22 01:02:12;;;;;;;2.78;2.50;;;11.70;99.90;;;;;;5061147;28;20444;-80
2024/02/22 01:04:37;;;;;;;5.05;2.30;;;11.60;99.90;;;;;;5062476;28;20390;-80
2024/02/22 01:07:03;;;;;;;3.10;2.60;;;11.50;99.90;;;;;;5058734;28;20385;-80
2024/02/22 01:09:28;;;;;;;3.27;2.60;;;11.40;99.90;;;;;;5040108;28;20385;-79
2024/02/22 01:11:54;;;;;;;2.78;2.10;;;11.50;99.90;;;;;;5043345;28;20392;-80
2024/02/22 01:14:20;;;;;;;2.10;1.90;;;11.70;99.90;;;;;;5063435;28;20822;-82
2024/02/22 01:16:48;;;;;;;3.42;2.50;;;11.30;99.90;;;;;;5060550;28;20412;-81
2024/02/22 01:19:13;;;;;;;3.10;2.00;;;11.30;99.90;;;;;;5081587;28;20376;-81
2024/02/22 01:21:39;;;;;;;2.70;1.98;;;11.30;99.90;;;;;;5062029;28;20824;-80
2024/02/22 01:24:05;;;;;;;3.55;1.98;;;11.30;99.90;;;;;;5056841;28;20390;-80
2024/02/22 01:26:30;;;;;;;2.70;1.90;;;11.40;99.90;;;;;;5035961;28;20398;-81
2024/02/22 01:28:56;;;;;;;2.30;2.10;;;11.10;99.90;;;;;;5039843;28;20389;-81
2024/02/22 01:31:21;;;;;;;3.50;2.30;;;11.30;99.90;;;;;;5061651;28;20885;-82
2024/02/22 01:33:47;;;;;;;7.95;2.55;;;11.30;99.90;;;;;;5043230;28;20404;-81
2024/02/22 01:36:12;;;;;;;2.70;2.30;;;11.00;99.90;;;;;;5053786;28;20408;-80
2024/02/22 01:38:38;;;;;;;2.60;2.10;;;11.80;99.90;;;;;;5060106;28;20389;-82
2024/02/22 01:41:05;;;;;;;2.70;1.80;;;10.90;99.90;;;;;;5043322;28;20397;-80
2024/02/22 01:43:32;;;;;;;2.30;1.90;;;10.70;99.90;;;;;;5042621;28;20400;-80
2024/02/22 01:45:57;;;;;;;2.45;1.50;;;10.80;99.90;;;;;;5042773;28;20385;-80
2024/02/22 01:48:23;;;;;;;2.30;2.00;;;10.90;99.90;;;;;;5045114;28;20816;-80
2024/02/22 01:50:52;;;;;;;3.45;1.90;;;10.80;99.90;;;;;;5036185;28;20507;-81
2024/02/22 01:53:23;;;;;;;2.70;2.20;;;10.80;99.90;;;;;;5043160;28;20396;-80
2024/02/22 01:55:51;;;;;;;1.92;1.80;;;10.50;99.90;;;;;;5048397;28;20397;-78
2024/02/22 01:58:17;;;;;;;2.20;1.80;;;10.60;99.90;;;;;;5056711;28;20402;-81
2024/02/22 02:00:42;;;;;;;2.10;1.60;;;10.40;99.90;;;;;;5041961;28;20761;-81
2024/02/22 02:03:08;;;;;;;1.70;1.30;;;10.40;99.90;;;;;;5043828;28;20828;-80
2024/02/22 02:05:34;;;;;;;1.80;1.23;;;10.30;99.90;;;;;;5042912;28;20398;-80
2024/02/22 02:08:00;;;;;;;1.50;1.20;;;10.40;99.90;;;;;;5040266;28;20464;-80
2024/02/22 02:10:25;;;;;;;1.63;1.33;;;10.30;99.90;;;;;;5059406;28;20398;-81
2024/02/22 02:12:51;;;;;;;1.87;1.50;;;10.30;99.90;;;;;;5080643;28;20392;-82
2024/02/22 02:15:16;;;;;;;1.63;1.20;;;9.80;99.90;;;;;;5078348;28;20399;-80
2024/02/22 02:17:43;;;;;;;1.80;1.10;;;10.40;99.90;;;;;;5082184;28;20388;-82
2024/02/22 02:20:10;;;;;;;1.38;1.27;;;10.00;99.90;;;;;;5044583;28;20394;-82
2024/02/22 02:22:51;;;;;;;2.45;1.30;;;10.30;99.90;;;;;;5052738;28;20380;-82
2024/02/22 02:25:17;;;;;;;1.48;1.20;;;10.10;99.90;;;;;;5056850;28;20390;-82
2024/02/22 02:27:43;;;;;;;1.87;1.30;;;9.90;99.90;;;;;;5058765;28;20571;-83
2024/02/22 02:30:09;;;;;;;1.10;0.95;;;10.00;99.90;;;;;;5054544;28;20427;-83
2024/02/22 02:32:37;;;;;;;1.60;1.50;;;10.20;99.90;;;;;;5046486;28;20775;-83
2024/02/22 02:35:02;;;;;;;1.50;0.90;;;10.30;99.90;;;;;;5055805;28;20412;-82
2024/02/22 02:37:28;;;;;;;1.70;0.88;;;10.40;99.90;;;;;;5058959;28;20386;-80
2024/02/22 02:39:54;;;;;;;1.35;0.82;;;10.30;99.90;;;;;;5056189;28;20427;-81
2024/02/22 02:42:19;;;;;;;0.80;0.80;;;10.20;99.90;;;;;;5055547;28;20373;-82
2024/02/22 02:44:45;;;;;;;1.00;0.80;;;10.90;99.90;;;;;;5054865;28;20409;-84
2024/02/22 02:47:12;;;;;;;1.00;0.70;;;13.70;99.90;;;;;;5056665;28;20381;-84
2024/02/22 02:49:38;;;;;;;0.90;0.80;;;10.90;99.90;;;;;;5069101;28;20402;-83
2024/02/22 02:52:03;;;;;;;1.00;0.88;;;11.00;99.90;;;;;;5066264;28;20393;-83
2024/02/22 02:54:29;;;;;;;0.83;0.70;;;11.10;99.90;;;;;;5054340;28;20432;-82
2024/02/22 02:56:56;;;;;;;0.80;0.80;;;10.80;99.90;;;;;;5058523;28;21353;-82
2024/02/22 02:59:22;;;;;;;1.20;0.80;;;10.30;99.90;;;;;;5055237;28;20417;-82
2024/02/22 03:01:48;;;;;;;0.97;0.70;;;11.00;99.90;;;;;;5057843;28;20405;-82
2024/02/22 03:04:16;;;;;;;1.00;0.88;;;11.20;99.90;;;;;;5058424;28;20954;-83
2024/02/22 03:06:41;;;;;;;0.70;0.65;;;11.40;99.90;;;;;;5054589;28;20864;-82
2024/02/22 03:09:07;;;;;;;0.88;0.70;;;11.20;99.90;;;;;;5046652;28;20398;-82
2024/02/22 03:11:32;;;;;;;1.00;0.90;;;11.50;99.90;;;;;;5037364;28;20386;-82
2024/02/22 03:13:58;;;;;;;1.40;0.70;;;11.30;99.90;;;;;;5057787;28;20408;-83
2024/02/22 03:16:24;;;;;;;0.70;0.70;;;11.50;99.90;;;;;;5039359;28;20501;-82
2024/02/22 03:18:51;;;;;;;0.98;0.88;;;11.70;99.90;;;;;;5040670;28;20420;-82
2024/02/22 03:21:20;;;;;;;0.70;0.55;;;11.80;99.90;;;;;;5046142;28;20398;-81
2024/02/22 03:23:46;;;;;;;0.70;0.60;;;11.80;99.90;;;;;;5042187;28;20429;-82
2024/02/22 03:26:12;;;;;;;1.00;0.60;;;11.70;99.90;;;;;;5037526;28;20393;-82
2024/02/22 03:28:37;;;;;;;0.90;0.70;;;11.70;99.90;;;;;;5038858;28;20396;-82
2024/02/22 03:31:04;;;;;;;1.50;0.80;;;11.80;99.90;;;;;;5040270;28;20401;-82
2024/02/22 03:33:29;;;;;;;1.60;0.70;;;12.00;99.90;;;;;;5056767;28;20381;-82
2024/02/22 03:35:57;;;;;;;1.00;0.70;;;12.00;99.90;;;;;;5035193;28;20413;-82
2024/02/22 03:38:23;;;;;;;0.93;0.63;;;11.80;99.90;;;;;;5059268;28;20408;-82
2024/02/22 03:40:48;;;;;;;0.90;0.70;;;12.00;99.90;;;;;;5042989;28;20378;-83
2024/02/22 03:43:15;;;;;;;0.60;0.60;;;11.90;99.90;;;;;;5044086;28;20443;-83
2024/02/22 03:45:40;;;;;;;1.10;0.60;;;11.00;99.90;;;;;;5043255;28;20436;-82
2024/02/22 03:48:06;;;;;;;1.05;0.80;;;11.60;99.90;;;;;;5065603;28;20389;-84
2024/02/22 03:50:32;;;;;;;0.93;0.80;;;11.90;99.90;;;;;;5046667;28;20413;-84
2024/02/22 03:52:58;;;;;;;0.83;0.63;;;11.30;99.90;;;;;;5043563;28;20507;-84
2024/02/22 03:55:24;;;;;;;1.00;0.60;;;11.40;99.90;;;;;;5059993;28;20824;-81
2024/02/22 03:57:49;;;;;;;1.00;0.80;;;11.40;99.90;;;;;;5041985;28;20393;-82
2024/02/22 04:00:15;;;;;;;0.90;0.70;;;11.70;99.90;;;;;;5059385;28;20757;-79
2024/02/22 04:02:48;;;;;;;1.17;0.88;;;11.70;99.90;;;;;;5036697;28;20442;-82
2024/02/22 04:05:16;;;;;;;0.90;0.70;;;11.00;99.90;;;;;;5059117;28;20436;-81
2024/02/22 04:07:44;;;;;;;1.50;0.70;;;14.10;99.90;;;;;;5040897;28;20396;-81
2024/02/22 04:10:10;;;;;;;0.70;0.70;;;11.50;99.90;;;;;;5041345;28;20389;-82
2024/02/22 04:12:36;;;;;;;0.55;0.52;;;11.50;99.90;;;;;;5060272;28;20384;-81
2024/02/22 04:15:02;;;;;;;0.90;0.60;;;11.70;99.90;;;;;;5041407;28;20448;-81
2024/02/22 04:17:28;;;;;;;1.00;0.60;;;14.10;99.90;;;;;;5044878;28;20393;-82
2024/02/22 04:19:55;;;;;;;0.80;0.70;;;11.40;99.90;;;;;;5059557;28;20976;-81
2024/02/22 04:22:20;;;;;;;0.80;0.60;;;11.30;99.90;;;;;;5041364;28;20472;-81
2024/02/22 04:24:46;;;;;;;0.70;0.60;;;10.90;99.90;;;;;;5037805;28;20433;-79
2024/02/22 04:27:11;;;;;;;0.87;0.70;;;11.10;99.90;;;;;;5065299;28;20391;-77
2024/02/22 04:29:37;;;;;;;0.63;0.40;;;11.30;99.90;;;;;;5060129;28;20443;-80
2024/02/22 04:32:03;;;;;;;0.93;0.55;;;11.30;99.90;;;;;;5043357;28;20401;-80
2024/02/22 04:34:28;;;;;;;0.60;0.60;;;11.20;99.90;;;;;;5063837;28;20405;-81
2024/02/22 04:36:55;;;;;;;0.70;0.60;;;11.10;99.90;;;;;;5067791;28;20391;-80
2024/02/22 04:39:20;;;;;;;0.57;0.40;;;12.20;99.90;;;;;;5067535;28;20395;-81
2024/02/22 04:41:46;;;;;;;0.73;0.50;;;11.00;99.90;;;;;;5065948;28;20760;-80
2024/02/22 04:44:12;;;;;;;0.50;0.40;;;10.80;99.90;;;;;;5060327;28;20421;-81
2024/02/22 04:46:37;;;;;;;1.88;0.60;;;11.10;99.90;;;;;;5059680;28;20389;-80
2024/02/22 04:49:04;;;;;;;0.50;0.40;;;10.80;99.90;;;;;;5060848;28;20753;-79
2024/02/22 04:51:33;;;;;;;0.80;0.60;;;10.90;99.90;;;;;;5056547;28;20488;-80
2024/02/22 04:54:03;;;;;;;0.63;0.40;;;10.90;99.90;;;;;;5057302;28;20417;-79
2024/02/22 04:56:29;;;;;;;0.50;0.30;;;12.20;99.90;;;;;;5057417;28;20382;-80
2024/02/22 04:58:55;;;;;;;0.50;0.40;;;11.10;99.90;;;;;;5056891;28;20393;-80
2024/02/22 05:01:26;;;;;;;0.80;0.40;;;11.00;99.90;;;;;;5050306;28;20475;-80
2024/02/22 05:03:52;;;;;;;0.50;0.45;;;11.10;99.90;;;;;;5078244;28;20384;-80
2024/02/22 05:06:17;;;;;;;0.65;0.40;;;11.10;99.90;;;;;;5061429;28;20386;-79
2024/02/22 05:08:43;;;;;;;0.50;0.40;;;10.20;99.90;;;;;;5039392;28;20403;-80
2024/02/22 05:11:08;;;;;;;0.50;0.40;;;11.20;99.90;;;;;;5040439;28;20439;-81
2024/02/22 05:13:34;;;;;;;0.40;0.30;;;10.90;99.90;;;;;;5047890;28;20391;-81
2024/02/22 05:16:00;;;;;;;0.50;0.30;;;11.20;99.90;;;;;;5062576;28;20407;-80
2024/02/22 05:18:25;;;;;;;0.50;0.40;;;11.60;99.90;;;;;;5048509;28;20401;-79
2024/02/22 05:20:51;;;;;;;0.60;0.40;;;11.50;99.90;;;;;;5061494;28;20396;-79
2024/02/22 05:23:17;;;;;;;0.43;0.32;;;11.40;99.90;;;;;;5045959;28;20935;-81
2024/02/22 05:25:42;;;;;;;0.50;0.30;;;12.50;99.90;;;;;;5061142;28;20828;-80
2024/02/22 05:28:10;;;;;;;0.87;0.37;;;11.20;99.90;;;;;;5041164;28;20712;-80
2024/02/22 05:30:36;;;;;;;1.30;0.30;;;11.60;99.90;;;;;;5059119;28;20385;-80
2024/02/22 05:33:02;;;;;;;0.50;0.30;;;11.00;99.90;;;;;;5041413;28;20389;-81
2024/02/22 05:35:27;;;;;;;0.40;0.30;;;11.30;99.90;;;;;;5059592;28;20416;-81
2024/02/22 05:37:53;;;;;;;0.47;0.30;;;11.10;99.90;;;;;;5043628;28;20390;-81
2024/02/22 05:40:18;;;;;;;0.50;0.40;;;11.20;99.90;;;;;;5062528;28;20893;-81
2024/02/22 05:42:44;;;;;;;0.40;0.30;;;11.20;99.90;;;;;;5042481;28;20393;-82
2024/02/22 05:45:10;;;;;;;0.40;0.30;;;11.00;99.90;;;;;;5045145;28;20846;-80
2024/02/22 05:47:36;;;;;;;0.40;0.20;;;11.30;99.90;;;;;;5069274;28;20416;-79
2024/02/22 05:50:02;;;;;;;0.40;0.30;;;11.70;99.90;;;;;;5056086;28;20931;-80
2024/02/22 05:52:29;;;;;;;0.40;0.30;;;11.40;99.90;;;;;;5037652;28;20401;-80
2024/02/22 05:54:55;;;;;;;0.45;0.30;;;11.80;99.90;;;;;;5056066;28;20413;-80
2024/02/22 05:57:20;;;;;;;0.50;0.30;;;14.50;99.90;;;;;;5039693;28;20381;-80
2024/02/22 05:59:46;;;;;;;0.40;0.30;;;11.70;99.90;;;;;;5059114;28;20396;-81
2024/02/22 06:02:11;;;;;;;1.10;0.30;;;12.10;99.90;;;;;;5042969;28;20404;-79
2024/02/22 06:04:37;;;;;;;0.50;0.30;;;11.80;99.90;;;;;;5042288;28;20396;-79
2024/02/22 06:07:03;;;;;;;0.50;0.30;;;12.00;99.90;;;;;;5057722;28;20389;-80
2024/02/22 06:09:29;;;;;;;0.50;0.30;;;12.00;99.90;;;;;;5056972;28;20542;-81
2024/02/22 06:11:54;;;;;;;0.60;0.30;;;12.00;99.90;;;;;;5059022;28;20394;-80
2024/02/22 06:14:20;;;;;;;0.40;0.30;;;12.10;99.90;;;;;;5058524;28;20851;-81
2024/02/22 06:16:45;;;;;;;1.00;0.30;;;11.90;99.90;;;;;;5059289;28;20424;-79
2024/02/22 06:19:11;;;;;;;0.50;0.40;;;12.30;99.90;;;;;;5059005;28;20390;-80
2024/02/22 06:21:36;;;;;;;0.70;0.50;;;12.30;99.90;;;;;;5056075;28;20403;-79
2024/02/22 06:24:02;;;;;;;0.50;0.40;;;12.20;99.90;;;;;;5048382;28;20386;-81
2024/02/22 06:26:35;;;;;;;0.80;0.50;;;12.30;99.90;;;;;;5045758;28;20393;-82
2024/02/22 06:29:01;;;;;;;0.40;0.30;;;12.10;99.90;;;;;;5065083;28;20394;-80
2024/02/22 06:31:27;;;;;;;0.47;0.30;;;12.30;99.90;;;;;;5073754;23;20463;-79
2024/02/22 06:33:52;;;;;;;0.50;0.30;;;12.30;99.90;;;;;;5071406;28;20386;-79
2024/02/22 06:36:18;;;;;;;0.50;0.30;;;12.30;99.90;;;;;;5070715;28;20411;-79
2024/02/22 06:38:45;;;;;;;0.60;0.30;;;11.90;99.90;;;;;;5073078;28;20383;-80
2024/02/22 06:41:11;;;;;;;0.50;0.40;;;12.40;99.90;;;;;;5051924;28;20493;-79
2024/02/22 06:43:37;;;;;;;0.70;0.30;;;12.40;99.90;;;;;;5032681;28;20395;-79
2024/02/22 06:46:03;;;;;;;0.40;0.30;;;12.30;99.90;;;;;;5034368;28;20755;-79
2024/02/22 06:48:29;;;;;;;0.40;0.30;;;12.20;99.90;;;;;;5070040;28;20475;-79
2024/02/22 06:50:55;;;;;;;0.50;0.40;;;12.30;99.90;;;;;;5059124;28;20409;-80
2024/02/22 06:53:21;;;;;;;0.40;0.30;;;12.30;99.90;;;;;;5052532;28;20421;-79
2024/02/22 06:55:47;;;;;;;0.40;0.30;;;12.20;99.90;;;;;;5052566;28;20411;-79
2024/02/22 06:58:12;;;;;;;0.40;0.30;;;11.70;99.90;;;;;;5065286;28;20387;-79
2024/02/22 07:00:38;;;;;;;0.40;0.30;;;12.10;99.90;;;;;;5061738;28;20402;-79
2024/02/22 07:03:04;;;;;;;0.43;0.32;;;12.00;99.90;;;;;;5052559;28;20996;-79
2024/02/22 07:05:29;;;;;;;0.60;0.40;;;11.90;99.90;;;;;;5055920;28;20491;-79
2024/02/22 07:07:55;;;;;;;2.60;0.40;;;12.00;99.90;;;;;;5061357;28;20401;-79
2024/02/22 07:10:21;;;;;;;0.40;0.20;;;11.90;99.90;;;;;;5046089;28;21021;-79
2024/02/22 07:12:47;;;;;;;0.40;0.30;;;12.00;99.90;;;;;;5046570;28;20393;-79
2024/02/22 07:15:14;;;;;;;0.80;0.30;;;12.00;99.90;;;;;;5049409;28;20409;-80
2024/02/22 07:17:40;;;;;;;0.40;0.30;;;12.00;99.90;;;;;;5052417;28;20393;-80
2024/02/22 07:20:06;;;;;;;0.40;0.30;;;11.90;99.90;;;;;;5045912;28;20418;-79
2024/02/22 07:22:31;;;;;;;0.70;0.30;;;12.00;99.90;;;;;;5037449;28;20412;-80
2024/02/22 07:24:58;;;;;;;0.55;0.30;;;12.00;99.90;;;;;;5047524;28;20399;-79
2024/02/22 07:27:24;;;;;;;0.60;0.40;;;12.10;99.90;;;;;;5033806;28;20391;-79
2024/02/22 07:29:50;;;;;;;0.50;0.30;;;12.00;99.90;;;;;;5033061;28;20422;-79
2024/02/22 07:32:16;;;;;;;0.50;0.30;;;12.00;99.90;;;;;;5048884;28;20393;-81
2024/02/22 07:34:41;;;;;;;0.40;0.30;;;11.80;99.90;;;;;;5047795;28;20422;-79
2024/02/22 07:37:07;;;;;;;0.50;0.30;;;11.80;99.90;;;;;;5047159;28;20424;-79
2024/02/22 07:39:33;;;;;;;0.40;0.30;;;11.50;99.90;;;;;;5046659;28;20403;-79
2024/02/22 07:41:58;;;;;;;0.40;0.30;;;11.80;99.90;;;;;;5048944;28;20516;-79
2024/02/22 07:44:24;;;;;;;0.40;0.30;;;11.80;99.90;;;;;;5057170;28;20913;-79
2024/02/22 07:46:51;;;;;;;0.60;0.40;;;11.40;99.90;;;;;;5038771;28;20395;-79
2024/02/22 07:49:18;;;;;;;0.50;0.30;;;11.70;99.90;;;;;;5041182;28;20393;-79
2024/02/22 07:51:43;;;;;;;0.40;0.30;;;11.80;99.90;;;;;;5047549;28;20397;-79
2024/02/22 07:54:09;;;;;;;0.40;0.30;;;11.90;99.90;;;;;;5058400;28;20410;-79
2024/02/22 07:56:39;;;;;;;0.40;0.30;;;11.60;99.90;;;;;;5045299;28;20820;-79
2024/02/22 07:59:05;;;;;;;0.50;0.30;;;12.10;99.90;;;;;;5038149;28;20514;-79
2024/02/22 08:01:30;;;;;;;0.40;0.30;;;12.00;99.90;;;;;;5044308;28;20469;-79
2024/02/22 08:03:56;;;;;;;0.40;0.30;;;11.40;99.90;;;;;;5052301;28;20435;-80
2024/02/22 08:06:21;;;;;;;0.70;0.30;;;11.70;99.90;;;;;;5044085;28;20394;-80
2024/02/22 08:08:47;;;;;;;1.00;0.40;;;11.90;99.90;;;;;;5070915;28;20450;-80
2024/02/22 08:11:12;;;;;;;0.70;0.30;;;11.80;99.90;;;;;;5074598;28;20413;-80
2024/02/22 08:13:38;;;;;;;1.20;0.60;;;11.80;99.90;;;;;;5069492;28;20408;-80
2024/02/22 08:16:05;;;;;;;0.40;0.30;;;11.70;99.90;;;;;;5052083;28;20430;-80
2024/02/22 08:18:33;;;;;;;0.67;0.30;;;11.60;99.90;;;;;;5054905;28;20540;-78
2024/02/22 08:20:58;;;;;;;0.40;0.30;;;11.50;99.90;;;;;;5043114;28;20399;-79
2024/02/22 08:23:24;;;;;;;0.47;0.30;;;11.50;99.90;;;;;;5052714;28;20490;-79
2024/02/22 08:25:49;;;;;;;0.40;0.30;;;11.40;99.90;;;;;;5058524;28;20393;-79
2024/02/22 08:28:15;;;;;;;0.50;0.30;;;11.60;99.90;;;;;;5058963;28;20398;-78
2024/02/22 08:30:41;;;;;;;0.40;0.30;;;11.80;99.90;;;;;;5070170;28;20899;-79
2024/02/22 08:33:06;;;;;;;0.50;0.30;;;11.20;99.90;;;;;;5078397;28;20810;-78
2024/02/22 08:35:32;;;;;;;0.50;0.30;;;11.80;99.90;;;;;;5082435;28;20395;-78
2024/02/22 08:37:58;;;;;;;0.50;0.40;;;11.70;99.90;;;;;;5083318;28;20396;-79
2024/02/22 08:40:23;;;;;;;0.52;0.40;;;11.90;99.90;;;;;;5067357;28;20390;-79
2024/02/22 08:42:49;;;;;;;0.40;0.30;;;12.00;99.90;;;;;;5056024;28;20738;-80
2024/02/22 08:45:16;;;;;;;0.53;0.30;;;11.60;99.90;;;;;;5055729;28;21007;-80
2024/02/22 08:47:42;;;;;;;0.50;0.30;;;12.10;99.90;;;;;;5056605;28;20381;-79
2024/02/22 08:50:09;;;;;;;0.40;0.30;;;12.10;99.90;;;;;;5055605;28;20396;-79
2024/02/22 08:52:36;;;;;;;0.40;0.40;;;12.10;99.90;;;;;;5056302;28;20386;-78
2024/02/22 08:55:03;;;;;;;0.40;0.30;;;12.10;99.90;;;;;;5062128;28;20405;-78
2024/02/22 08:57:28;;;;;;;0.80;0.40;;;12.30;99.90;;;;;;5059462;28;20991;-79
2024/02/22 08:59:54;;;;;;;0.40;0.30;;;12.30;99.90;;;;;;5061124;28;20429;-77
2024/02/22 09:02:21;;;;;;;0.40;0.30;;;12.40;99.90;;;;;;5057995;28;20385;-78
2024/02/22 09:04:47;;;;;;;0.70;0.40;;;12.40;99.90;;;;;;5058545;28;20473;-78
2024/02/22 09:07:13;;;;;;;0.68;0.30;;;12.10;99.90;;;;;;5058780;28;20427;-78
2024/02/22 09:09:39;;;;;;;0.50;0.40;;;12.50;99.90;;;;;;5058635;28;20382;-78
2024/02/22 09:12:05;;;;;;;0.70;0.40;;;12.50;99.90;;;;;;5064350;28;20438;-78
2024/02/22 09:14:30;;;;;;;0.60;0.50;;;12.50;99.90;;;;;;5074215;28;20490;-78
2024/02/22 09:16:56;;;;;;;0.77;0.40;;;12.50;99.90;;;;;;5053795;28;20390;-78
2024/02/22 09:19:23;;;;;;;0.50;0.40;;;12.60;99.90;;;;;;5066369;28;20392;-78
2024/02/22 09:21:48;;;;;;;0.80;0.40;;;12.70;99.90;;;;;;5054066;28;20388;-78
2024/02/22 09:24:14;;;;;;;0.50;0.50;;;12.70;99.90;;;;;;5054451;28;20774;-78
2024/02/22 09:26:40;;;;;;;0.70;0.40;;;12.70;99.90;;;;;;5068177;28;20449;-79
2024/02/22 09:29:05;;;;;;;1.20;0.40;;;12.00;99.90;;;;;;5056477;28;20397;-78
2024/02/22 09:31:32;;;;;;;1.10;0.40;;;12.80;99.90;;;;;;5065789;28;20395;-78
2024/02/22 09:34:00;;;;;;;0.50;0.38;;;12.80;99.90;;;;;;5072648;28;20467;-79
2024/02/22 09:36:26;;;;;;;0.75;0.40;;;12.40;99.90;;;;;;5072161;28;20384;-78
2024/02/22 09:38:52;;;;;;;0.60;0.37;;;12.70;99.90;;;;;;5058592;28;20393;-79
2024/02/22 09:41:19;;;;;;;0.60;0.37;;;12.80;99.90;;;;;;5054576;28;20401;-78
2024/02/22 09:43:45;;;;;;;1.50;0.70;;;12.40;99.90;;;;;;5053750;28;20432;-78
2024/02/22 09:46:11;;;;;;;0.50;0.40;;;12.50;99.90;;;;;;5053772;28;20392;-79
2024/02/22 09:48:37;;;;;;;0.60;0.30;;;12.80;99.90;;;;;;5054076;28;20396;-78
2024/02/22 09:51:04;;;;;;;0.70;0.40;;;12.70;99.90;;;;;;5053901;28;20389;-78
2024/02/22 09:53:29;;;;;;;0.50;0.40;;;12.70;99.90;;;;;;5052501;28;20901;-77
2024/02/22 09:55:55;;;;;;;0.90;0.50;;;12.70;99.90;;;;;;5055335;28;20410;-79
2024/02/22 09:58:21;;;;;;;0.67;0.30;;;12.80;99.90;;;;;;5057504;28;20408;-79
2024/02/22 10:00:47;;;;;;;0.90;0.60;;;12.70;99.90;;;;;;5071135;28;20456;-76
2024/02/22 10:03:12;;;;;;;0.60;0.40;;;12.70;99.90;;;;;;5077315;28;20408;-76
2024/02/22 10:05:39;;;;;;;0.50;0.50;;;12.70;99.90;;;;;;5077041;28;20397;-77
2024/02/22 10:08:12;;;;;;;0.50;0.30;;;12.60;99.90;;;;;;5065860;28;20825;-78
2024/02/22 10:10:40;;;;;;;0.45;0.35;;;12.50;99.90;;;;;;5056806;28;20393;-78
2024/02/22 10:13:05;;;;;;;0.80;0.40;;;12.50;99.90;;;;;;5070395;28;20490;-77
2024/02/22 10:15:33;;;;;;;0.40;0.30;;;12.50;99.90;;;;;;5061364;28;20409;-77
2024/02/22 10:17:59;;;;;;;0.60;0.50;;;12.50;99.90;;;;;;5053660;28;20413;-77
2024/02/22 10:20:32;;;;;;;0.50;0.35;;;12.40;99.90;;;;;;5053958;28;20377;-78
2024/02/22 10:23:05;;;;;;;0.57;0.40;;;12.50;99.90;;;;;;5054012;28;20447;-78
2024/02/22 10:25:31;;;;;;;0.40;0.40;;;12.50;99.90;;;;;;5056918;28;20999;-77
2024/02/22 10:27:56;;;;;;;0.50;0.40;;;12.00;99.90;;;;;;5053981;28;20388;-78
2024/02/22 10:30:26;;;;;;;0.50;0.40;;;12.40;99.90;;;;;;5052305;28;20396;-78
2024/02/22 10:32:55;;;;;;;0.50;0.40;;;12.40;99.90;;;;;;5052545;28;20402;-78
2024/02/22 10:35:23;;;;;;;0.60;0.50;;;12.40;99.90;;;;;;5053067;28;20412;-78
2024/02/22 10:37:53;;;;;;;0.70;0.60;;;12.40;99.90;;;;;;5053361;28;20814;-78
2024/02/22 10:40:19;;;;;;;0.50;0.50;;;12.30;99.90;;;;;;5052262;28;20397;-78
2024/02/22 10:42:48;;;;;;;0.50;0.40;;;12.20;99.90;;;;;;5052725;28;20438;-78
2024/02/22 10:45:14;;;;;;;0.80;0.50;;;12.30;99.90;;;;;;5051928;28;20397;-77
2024/02/22 10:47:40;;;;;;;1.40;0.60;;;11.60;99.90;;;;;;5052355;28;20435;-78
2024/02/22 10:50:06;;;;;;;0.50;0.50;;;12.20;99.90;;;;;;5051069;28;20393;-77
2024/02/22 10:52:42;;;;;;;0.50;0.40;;;12.20;99.90;;;;;;5053153;28;20408;-79
2024/02/22 10:55:15;;;;;;;0.47;0.40;;;12.20;99.90;;;;;;5052092;28;20412;-77
2024/02/22 10:57:47;;;;;;;0.70;0.40;;;12.20;99.90;;;;;;5052732;28;20865;-78
2024/02/22 11:00:14;;;;;;;0.50;0.40;;;12.30;99.90;;;;;;5062475;28;20407;-79
2024/02/22 11:02:41;;;;;;;1.20;0.80;;;12.40;99.90;;;;;;5073080;28;20459;-79
2024/02/22 11:05:11;;;;;;;0.60;0.32;;;12.40;99.90;;;;;;5060768;28;20447;-78
2024/02/22 11:08:03;;;;;;;0.55;0.40;;;12.10;99.90;;;;;;5051175;28;20421;-78
2024/02/22 11:10:29;;;;;;;0.50;0.40;;;12.60;99.90;;;;;;5048324;28;20393;-78
2024/02/22 11:13:03;;;;;;;0.60;0.40;;;13.40;99.90;;;;;;5050752;28;20404;-78
2024/02/22 11:15:35;;;;;;;0.98;0.70;;;12.50;99.90;;;;;;5050941;28;20784;-78
2024/02/22 11:18:01;;;;;;;0.47;0.40;;;12.80;99.90;;;;;;5052680;28;20382;-80
2024/02/22 11:20:34;;;;;;;1.90;0.50;;;13.70;99.90;;;;;;5052601;28;20885;-78
2024/02/22 11:23:14;;;;;;;0.90;0.80;;;12.90;99.90;;;;;;5056134;28;20415;-77
2024/02/22 11:25:40;;;;;;;1.20;0.60;;;13.10;99.90;;;;;;5058024;28;20386;-77
2024/02/22 11:28:05;;;;;;;0.70;0.50;;;12.70;99.90;;;;;;5068260;28;20391;-78
2024/02/22 11:30:31;;;;;;;1.10;0.60;;;13.20;99.90;;;;;;5078731;28;20463;-78
2024/02/22 11:32:57;;;;;;;0.60;0.40;;;13.00;99.90;;;;;;5078936;28;20443;-77
2024/02/22 11:35:23;;;;;;;0.45;0.40;;;12.70;99.90;;;;;;5077743;28;20486;-77
2024/02/22 11:38:02;;;;;;;0.60;0.40;;;13.30;99.90;;;;;;5062247;28;20400;-77
2024/02/22 11:40:34;;;;;;;0.90;0.50;;;13.30;99.90;;;;;;5055583;28;20770;-77
2024/02/22 11:43:00;;;;;;;0.60;0.40;;;13.40;99.90;;;;;;5056161;28;20396;-78
2024/02/22 11:45:27;;;;;;;0.68;0.40;;;13.10;99.90;;;;;;5051368;28;20397;-78
2024/02/22 11:47:52;;;;;;;0.73;0.50;;;13.40;99.90;;;;;;5052248;28;20382;-78
2024/02/22 11:50:20;;;;;;;1.00;0.47;;;13.40;99.90;;;;;;5052070;28;20404;-78
2024/02/22 11:52:46;;;;;;;0.80;0.50;;;13.20;99.90;;;;;;5049894;28;22062;-78
2024/02/22 11:55:12;;;;;;;0.60;0.40;;;13.40;99.90;;;;;;5050950;28;20747;-78
2024/02/22 11:57:37;;;;;;;0.50;0.40;;;13.40;99.90;;;;;;5052255;28;20444;-78
2024/02/22 12:00:04;;;;;;;0.60;0.40;;;12.90;99.90;;;;;;5053257;28;20809;-78
2024/02/22 12:02:31;;;;;;;0.50;0.40;;;13.60;99.90;;;;;;5053972;28;20812;-78
2024/02/22 12:04:57;;;;;;;1.30;0.47;;;13.60;99.90;;;;;;5055616;28;20393;-78
2024/02/22 12:07:23;;;;;;;0.60;0.45;;;13.70;99.90;;;;;;5055773;28;20381;-78
2024/02/22 12:09:49;;;;;;;0.80;0.40;;;13.70;99.90;;;;;;5055857;28;20404;-77
2024/02/22 12:12:14;;;;;;;0.80;0.60;;;13.50;99.90;;;;;;5055750;28;20389;-78
2024/02/22 12:14:40;;;;;;;0.50;0.40;;;13.80;99.90;;;;;;5055137;28;20401;-79
2024/02/22 12:17:10;;;;;;;1.20;0.40;;;13.80;99.90;;;;;;5055065;28;20382;-78
2024/02/22 12:19:36;;;;;;;0.40;0.40;;;13.70;99.90;;;;;;5057788;28;20469;-80
2024/02/22 12:22:02;;;;;;;0.90;0.47;;;13.70;99.90;;;;;;5067830;28;20985;-79
2024/02/22 12:24:29;;;;;;;0.60;0.40;;;13.70;99.90;;;;;;5075209;28;20419;-79
2024/02/22 12:26:57;;;;;;;0.50;0.40;;;13.80;99.90;;;;;;5058961;28;20784;-78
2024/02/22 12:29:25;;;;;;;0.60;0.52;;;13.90;99.90;;;;;;5047512;28;20397;-75
2024/02/22 12:32:04;;;;;;;0.52;0.40;;;13.90;99.90;;;;;;5055711;28;20436;-77
2024/02/22 12:34:30;;;;;;;0.93;0.60;;;13.60;99.90;;;;;;5055599;28;20402;-79
2024/02/22 12:36:55;;;;;;;0.57;0.40;;;13.30;99.90;;;;;;5075504;22;20441;-81
2024/02/22 12:39:23;;;;;;;0.53;0.40;;;13.60;99.90;;;;;;5042756;28;20385;-83
2024/02/22 12:41:48;;;;;;;0.50;0.40;;;13.00;99.90;;;;;;5060938;28;20381;-82
2024/02/22 12:44:14;;;;;;;0.60;0.50;;;12.70;99.90;;;;;;5060704;28;20461;-81